Oshoto, Wyoming
Current Conditions -  °F | °C
As of 2:15 PM on Friday 24 Oct 2014 (Local Time) from KW43 Reporting Station
Clear Clear  
Wind Chill: 64°   Ceiling: Unl
Heat Index: 64°   Visibility: 10mi
Dew Point: 34°   Wind: 7mph
Humidity: 32%   Direction: 40°NE
Pressure: 30.06"   Gusts: NA
Location:  44.3253°N, 104.815°W
Report Text: KW43 242015Z AUTO 04006KT 10SM CLR 18/01 A3006 RMK AO2
Loading
Personal Weather Stations






























Interactive Weather Map
Tropical Storm Tracking
New forecast layout! Learn more

10-Day Weather Forecast

Advertisements
Track Severe Weather on mobile